Junius, South Dakota
Current Conditions -  °F | °C
As of 12:35 PM on Wednesday 26 Nov 2014 (Local Time) from KMDS Reporting Station
Scattered Clouds Scattered Clouds  
Wind Chill:   Ceiling: Unl
Heat Index: 16°   Visibility: 10mi
Dew Point: 14°   Wind: 14mph
Humidity: 93%   Direction: 360°N
Pressure: 30.24"   Gusts: 26mph
Location:  43.9866°N, 97.1364°W
Report Text: KMDS 261835Z AUTO 36012G23KT 10SM SCT005 M09/M10 A3024 RMK AO2
Loading
Personal Weather Stations






























Interactive Weather Map New forecast layout! Learn more

10-Day Weather Forecast

Advertisements
Track Severe Weather on mobile